Time;durP1;ratioP1;P1;durP2;ratioP2;P2;SDS_P1;SDS_P2;PMS_P1;PMS_P2;Temp;Humidity;BMP_temperature;BMP_pressure;BME280_temperature;BME280_humidity;BME280_pressure;Samples;Min_cycle;Max_cycle;Signal;HPM_P1;HPM_P2
2022/05/26 00:00:14;;;;;;;1.93;1.00;;;15.70;67.30;;;;;;4163772;28;20217;-79
2022/05/26 00:02:16;;;;;;;5.13;1.30;;;15.60;69.30;;;;;;4178425;28;20290;-80
2022/05/26 00:04:21;;;;;;;5.47;1.17;;;15.60;70.80;;;;;;4176708;28;20203;-80
2022/05/26 00:06:24;;;;;;;1.90;1.10;;;15.60;71.10;;;;;;4163145;28;20284;-80
2022/05/26 00:08:27;;;;;;;1.70;1.00;;;15.50;72.40;;;;;;4153154;28;20270;-79
2022/05/26 00:10:29;;;;;;;0.93;0.70;;;15.50;73.80;;;;;;4174260;28;20233;-80
2022/05/26 00:12:32;;;;;;;1.20;0.90;;;15.50;74.40;;;;;;4172338;28;20228;-80
2022/05/26 00:14:33;;;;;;;1.90;0.93;;;15.50;75.20;;;;;;4167024;28;20240;-79
2022/05/26 00:16:35;;;;;;;1.83;0.80;;;15.50;75.60;;;;;;4181042;28;20204;-80
2022/05/26 00:18:40;;;;;;;1.27;0.80;;;15.50;76.00;;;;;;4179068;28;20210;-80
2022/05/26 00:20:44;;;;;;;2.17;1.00;;;15.50;76.70;;;;;;4150441;28;20312;-80
2022/05/26 00:22:45;;;;;;;2.03;0.83;;;15.50;78.00;;;;;;4172086;28;20224;-80
2022/05/26 00:24:48;;;;;;;1.70;0.80;;;15.40;78.90;;;;;;4178183;28;20206;-80
2022/05/26 00:26:51;;;;;;;1.63;0.60;;;15.40;79.10;;;;;;4171669;28;20221;-80
2022/05/26 00:28:53;;;;;;;2.90;0.80;;;15.40;79.70;;;;;;4182849;28;20206;-80
2022/05/26 00:30:55;;;;;;;1.30;0.90;;;15.50;80.10;;;;;;4181850;28;20228;-79
2022/05/26 00:32:57;;;;;;;1.23;0.70;;;15.40;80.40;;;;;;4195867;23;20240;-84
2022/05/26 00:34:59;;;;;;;1.53;0.60;;;15.40;81.10;;;;;;4174098;28;20211;-84
2022/05/26 00:37:02;;;;;;;1.40;0.80;;;15.30;81.20;;;;;;4175473;28;20235;-82
2022/05/26 00:39:04;;;;;;;2.00;0.63;;;15.30;81.50;;;;;;4178200;28;20751;-84
2022/05/26 00:41:09;;;;;;;3.03;1.07;;;15.30;80.90;;;;;;4169917;28;20269;-83
2022/05/26 00:43:12;;;;;;;3.00;0.57;;;15.30;80.60;;;;;;4172457;28;20235;-83
2022/05/26 00:45:14;;;;;;;1.83;0.70;;;15.30;80.00;;;;;;4156965;28;20264;-84
2022/05/26 00:47:20;;;;;;;1.50;0.80;;;15.30;78.70;;;;;;4158933;28;20255;-83
2022/05/26 00:49:26;;;;;;;0.67;0.50;;;15.30;79.50;;;;;;4161209;28;20239;-83
2022/05/26 00:51:31;;;;;;;1.80;0.67;;;15.30;79.90;;;;;;4149573;28;20631;-83
2022/05/26 00:53:43;;;;;;;2.90;0.70;;;15.30;78.70;;;;;;4154335;28;20256;-83
2022/05/26 00:55:50;;;;;;;5.90;0.90;;;15.30;78.80;;;;;;4154545;28;20231;-82
2022/05/26 00:58:42;;;;;;;1.63;0.80;;;15.30;77.80;;;;;;4155553;28;20239;-83
2022/05/26 01:01:33;;;;;;;1.07;0.40;;;15.30;77.30;;;;;;4159817;28;20507;-83
2022/05/26 01:04:24;;;;;;;1.33;0.40;;;15.30;76.10;;;;;;4157402;28;20352;-84
2022/05/26 01:07:16;;;;;;;1.63;0.50;;;15.30;76.10;;;;;;4163606;28;20722;-82
2022/05/26 01:10:09;;;;;;;5.53;0.60;;;15.30;75.20;;;;;;4159434;28;20796;-83
2022/05/26 01:13:04;;;;;;;1.90;0.50;;;15.40;74.90;;;;;;4159975;28;20270;-83
2022/05/26 01:15:57;;;;;;;1.57;0.57;;;15.40;74.20;;;;;;4155390;28;20671;-82
2022/05/26 01:18:49;;;;;;;2.50;0.67;;;15.40;73.80;;;;;;4153355;28;20260;-83
2022/05/26 01:21:41;;;;;;;1.10;0.70;;;15.40;73.50;;;;;;4158766;28;20219;-83
2022/05/26 01:24:33;;;;;;;2.07;0.60;;;15.40;73.40;;;;;;4162058;28;20240;-82
2022/05/26 01:27:26;;;;;;;3.77;0.60;;;15.40;73.20;;;;;;4153313;28;20215;-82
2022/05/26 01:30:19;;;;;;;1.07;0.40;;;15.40;74.60;;;;;;4155440;28;20213;-82
2022/05/26 01:33:11;;;;;;;1.30;0.53;;;15.50;73.50;;;;;;4161592;28;20236;-83
2022/05/26 01:36:03;;;;;;;1.73;0.60;;;15.50;73.80;;;;;;4156421;28;20217;-82
2022/05/26 01:38:17;;;;;;;0.90;0.50;;;15.50;73.80;;;;;;4148041;28;20203;-82
2022/05/26 01:40:27;;;;;;;0.77;0.50;;;15.50;74.30;;;;;;4158692;28;20209;-82
2022/05/26 01:42:38;;;;;;;2.90;0.77;;;15.50;74.70;;;;;;4145722;28;20215;-83
2022/05/26 01:44:49;;;;;;;1.30;0.80;;;15.50;74.50;;;;;;4147185;28;20247;-83
2022/05/26 01:46:51;;;;;;;1.77;0.50;;;15.50;74.10;;;;;;4162284;28;20216;-83
2022/05/26 01:48:57;;;;;;;2.80;0.60;;;15.50;74.40;;;;;;4158960;28;20216;-83
2022/05/26 01:51:04;;;;;;;4.07;0.73;;;15.50;75.00;;;;;;4162089;28;20205;-82
2022/05/26 01:53:21;;;;;;;0.67;0.47;;;15.50;74.70;;;;;;4154199;28;20263;-83
2022/05/26 01:55:28;;;;;;;2.93;0.60;;;15.50;75.30;;;;;;4163711;28;20208;-83
2022/05/26 01:57:37;;;;;;;1.17;0.77;;;15.50;75.50;;;;;;4154650;28;20212;-84
2022/05/26 01:59:41;;;;;;;1.93;0.60;;;15.50;75.70;;;;;;4161449;28;20589;-83
2022/05/26 02:01:47;;;;;;;1.63;0.70;;;15.50;76.00;;;;;;4157231;28;20215;-83
2022/05/26 02:03:53;;;;;;;2.63;0.80;;;15.50;76.30;;;;;;4137445;28;20259;-83
2022/05/26 02:05:58;;;;;;;1.67;0.70;;;15.50;76.30;;;;;;4155407;28;20561;-83
2022/05/26 02:08:07;;;;;;;2.03;0.70;;;15.40;76.40;;;;;;4147043;28;20699;-83
2022/05/26 02:10:16;;;;;;;1.27;0.70;;;15.40;76.70;;;;;;4157419;28;20216;-82
2022/05/26 02:12:25;;;;;;;2.30;0.60;;;15.40;77.20;;;;;;4148244;28;20264;-83
2022/05/26 02:14:33;;;;;;;1.47;0.57;;;15.40;77.20;;;;;;4140799;28;20231;-84
2022/05/26 02:16:39;;;;;;;0.80;0.50;;;15.40;77.70;;;;;;4150119;28;20346;-82
2022/05/26 02:18:48;;;;;;;1.00;0.60;;;15.40;77.20;;;;;;4145181;28;20211;-83
2022/05/26 02:20:57;;;;;;;2.10;0.70;;;15.40;77.30;;;;;;4161752;28;20208;-82
2022/05/26 02:23:04;;;;;;;1.17;0.60;;;15.40;77.30;;;;;;4157526;28;20201;-83
2022/05/26 02:25:09;;;;;;;2.63;0.60;;;15.40;76.80;;;;;;4162764;28;20279;-83
2022/05/26 02:27:12;;;;;;;1.37;0.50;;;15.40;77.50;;;;;;4147794;28;20205;-83
2022/05/26 02:31:35;;;;;;;0.90;0.60;;;15.40;77.70;;;;;;4141203;28;20668;-83
2022/05/26 02:33:39;;;;;;;1.60;0.83;;;15.40;78.10;;;;;;4159113;28;20233;-82
2022/05/26 02:35:45;;;;;;;2.20;0.90;;;15.40;78.10;;;;;;4156271;28;20728;-83
2022/05/26 02:37:50;;;;;;;1.07;0.40;;;15.40;78.60;;;;;;4156012;28;20254;-83
2022/05/26 02:39:52;;;;;;;1.30;0.60;;;15.40;79.20;;;;;;4160270;28;20656;-82
2022/05/26 02:41:55;;;;;;;1.40;0.53;;;15.40;79.10;;;;;;4159364;28;20202;-83
2022/05/26 02:43:59;;;;;;;2.93;0.60;;;15.30;79.40;;;;;;4158648;28;20230;-82
2022/05/26 02:46:12;;;;;;;2.60;0.73;;;15.40;79.80;;;;;;4151128;28;20209;-83
2022/05/26 02:48:24;;;;;;;2.33;0.90;;;15.30;80.10;;;;;;4161840;28;20722;-83
2022/05/26 02:50:40;;;;;;;3.93;0.80;;;15.30;80.40;;;;;;4149170;28;20225;-83
2022/05/26 02:52:48;;;;;;;1.30;0.60;;;15.30;80.90;;;;;;4144798;28;20235;-83
2022/05/26 02:54:59;;;;;;;1.97;0.70;;;15.30;80.70;;;;;;4153081;28;20283;-83
2022/05/26 02:57:11;;;;;;;2.83;0.70;;;15.30;81.40;;;;;;4171861;28;20211;-84
2022/05/26 02:59:23;;;;;;;7.37;0.70;;;15.30;81.80;;;;;;4169406;28;20211;-83
2022/05/26 03:01:32;;;;;;;2.43;0.70;;;15.30;82.30;;;;;;4166067;28;20208;-83
2022/05/26 03:03:39;;;;;;;2.43;0.80;;;15.30;82.60;;;;;;4166158;28;20239;-82
2022/05/26 03:05:48;;;;;;;4.43;0.70;;;15.30;82.60;;;;;;4156403;28;20213;-82
2022/05/26 03:07:53;;;;;;;1.63;0.80;;;15.30;82.50;;;;;;4151709;28;20215;-81
2022/05/26 03:09:55;;;;;;;2.03;0.60;;;15.20;83.00;;;;;;4167260;28;20214;-82
2022/05/26 03:11:59;;;;;;;1.33;0.60;;;15.30;82.00;;;;;;4140643;28;20288;-82
2022/05/26 03:14:00;;;;;;;1.40;0.53;;;15.30;82.40;;;;;;4148172;28;20231;-81
2022/05/26 03:16:04;;;;;;;0.87;0.50;;;15.30;82.40;;;;;;4140347;28;20218;-81
2022/05/26 03:18:06;;;;;;;2.10;0.67;;;15.20;82.60;;;;;;4149901;28;20223;-82
2022/05/26 03:20:09;;;;;;;2.23;0.90;;;15.20;82.30;;;;;;4161475;28;20219;-82
2022/05/26 03:22:11;;;;;;;1.40;0.70;;;15.30;82.30;;;;;;4166687;28;20652;-82
2022/05/26 03:24:14;;;;;;;2.33;0.60;;;15.30;82.50;;;;;;4170995;28;20315;-81
2022/05/26 03:26:16;;;;;;;1.97;0.53;;;15.20;83.50;;;;;;4158630;28;20221;-82
2022/05/26 03:28:18;;;;;;;0.60;0.50;;;15.30;84.00;;;;;;4163652;28;20269;-81
2022/05/26 03:30:20;;;;;;;2.20;0.60;;;15.30;84.70;;;;;;4164097;28;20203;-81
2022/05/26 03:32:24;;;;;;;2.20;0.50;;;15.20;84.70;;;;;;4160260;28;20346;-81
2022/05/26 03:41:24;;;;;;;1.23;0.60;;;15.20;84.60;;;;;;4145506;28;20204;-81
2022/05/26 03:43:32;;;;;;;1.40;0.60;;;15.20;85.20;;;;;;4156707;28;20259;-82
2022/05/26 03:45:35;;;;;;;2.47;0.53;;;15.20;84.70;;;;;;4143714;28;20295;-81
2022/05/26 03:47:39;;;;;;;1.70;0.80;;;15.30;85.20;;;;;;4140588;28;20247;-83
2022/05/26 03:49:41;;;;;;;1.10;0.50;;;15.20;85.80;;;;;;4163011;28;20634;-82
2022/05/26 03:51:44;;;;;;;4.17;1.83;;;15.50;86.10;;;;;;4163679;28;20285;-82
2022/05/26 03:53:46;;;;;;;5.90;3.13;;;15.40;85.30;;;;;;4161749;28;20320;-81
2022/05/26 03:55:48;;;;;;;4.80;2.20;;;15.30;85.80;;;;;;4157843;28;20254;-81
2022/05/26 03:57:50;;;;;;;3.57;1.50;;;15.30;85.00;;;;;;4144682;28;20736;-82
2022/05/26 03:59:52;;;;;;;4.20;1.30;;;15.30;85.40;;;;;;4142466;28;20575;-82
2022/05/26 04:01:54;;;;;;;1.10;0.77;;;15.50;85.60;;;;;;4155403;28;20208;-81
2022/05/26 04:03:57;;;;;;;2.07;0.70;;;15.30;85.50;;;;;;4156698;28;20328;-81
2022/05/26 04:05:59;;;;;;;2.43;0.90;;;15.30;85.30;;;;;;4165138;28;20199;-81
2022/05/26 04:08:01;;;;;;;3.27;0.60;;;15.30;85.20;;;;;;4171146;28;20204;-82
2022/05/26 04:10:04;;;;;;;1.00;0.90;;;15.30;86.10;;;;;;4145485;28;20208;-81
2022/05/26 04:12:07;;;;;;;2.37;1.20;;;15.40;86.60;;;;;;4147626;28;20206;-82
2022/05/26 04:14:09;;;;;;;1.13;0.80;;;15.40;87.20;;;;;;4163752;28;20216;-81
2022/05/26 04:16:10;;;;;;;0.93;0.80;;;15.40;87.70;;;;;;4147676;28;20226;-81
2022/05/26 04:18:13;;;;;;;2.37;1.67;;;15.40;88.50;;;;;;4168394;28;20208;-81
2022/05/26 04:20:20;;;;;;;2.40;1.10;;;15.40;88.90;;;;;;4158348;28;20212;-81
2022/05/26 04:22:23;;;;;;;3.93;1.90;;;15.40;88.50;;;;;;4165684;28;20267;-82
2022/05/26 04:24:25;;;;;;;3.67;1.47;;;15.40;89.00;;;;;;4168610;28;20219;-81
2022/05/26 04:26:27;;;;;;;2.30;1.57;;;15.40;88.90;;;;;;4171541;28;20555;-81
2022/05/26 04:28:29;;;;;;;2.57;1.40;;;15.60;89.10;;;;;;4168473;28;20208;-81
2022/05/26 04:30:30;;;;;;;2.27;1.20;;;15.50;89.30;;;;;;4167031;28;20219;-81
2022/05/26 04:32:33;;;;;;;1.87;0.80;;;15.40;89.60;;;;;;4162093;28;20228;-82
2022/05/26 04:34:34;;;;;;;1.33;0.60;;;15.50;89.60;;;;;;4160250;28;20292;-82
2022/05/26 04:36:38;;;;;;;0.77;0.60;;;15.50;89.30;;;;;;4144351;28;20263;-81
2022/05/26 04:38:39;;;;;;;1.80;0.60;;;15.50;89.80;;;;;;4148950;28;20214;-82
2022/05/26 04:40:42;;;;;;;1.30;1.00;;;15.50;89.70;;;;;;4150723;28;20742;-81
2022/05/26 04:42:44;;;;;;;8.20;3.10;;;15.50;89.90;;;;;;4160251;28;20220;-81
2022/05/26 04:44:46;;;;;;;1.60;0.93;;;15.50;90.10;;;;;;4155253;28;20276;-81
2022/05/26 04:46:48;;;;;;;2.73;0.90;;;15.50;90.10;;;;;;4161068;28;20291;-81
2022/05/26 04:48:50;;;;;;;4.90;1.20;;;15.60;90.40;;;;;;4162369;28;20283;-82
2022/05/26 04:50:52;;;;;;;1.43;0.77;;;15.50;90.10;;;;;;4162411;28;20685;-81
2022/05/26 04:52:56;;;;;;;0.73;0.50;;;15.60;90.60;;;;;;4145695;28;20232;-82
2022/05/26 04:54:57;;;;;;;1.43;0.83;;;15.60;90.40;;;;;;4155178;28;20692;-81
2022/05/26 04:57:00;;;;;;;2.27;1.10;;;15.40;90.60;;;;;;4143854;28;20222;-81
2022/05/26 04:59:02;;;;;;;2.83;1.23;;;15.60;90.70;;;;;;4137142;28;20886;-81
2022/05/26 05:01:12;;;;;;;2.80;0.90;;;15.60;91.00;;;;;;4140902;28;20615;-82
2022/05/26 05:03:14;;;;;;;2.00;0.93;;;15.60;91.10;;;;;;4139863;28;20687;-81
2022/05/26 05:05:15;;;;;;;3.03;0.70;;;15.60;91.50;;;;;;4159664;28;20206;-81
2022/05/26 05:07:19;;;;;;;1.83;0.70;;;15.60;92.00;;;;;;4163904;28;20223;-81
2022/05/26 05:09:22;;;;;;;1.73;0.60;;;15.70;92.30;;;;;;4155101;28;20208;-81
2022/05/26 05:11:24;;;;;;;3.43;1.70;;;15.60;92.50;;;;;;4146280;28;20257;-82
2022/05/26 05:13:26;;;;;;;4.13;1.70;;;15.80;92.40;;;;;;4168375;28;20623;-82
2022/05/26 05:15:35;;;;;;;4.93;1.80;;;15.60;92.20;;;;;;4150341;28;20695;-81
2022/05/26 05:17:37;;;;;;;3.90;0.83;;;15.60;92.80;;;;;;4157929;28;20649;-81
2022/05/26 05:19:39;;;;;;;0.87;0.70;;;15.60;92.80;;;;;;4162410;28;20254;-80
2022/05/26 05:21:45;;;;;;;2.13;1.10;;;15.60;92.90;;;;;;4147460;28;20581;-81
2022/05/26 05:23:50;;;;;;;3.80;2.37;;;15.50;93.20;;;;;;4156757;28;20270;-80
2022/05/26 05:25:58;;;;;;;2.80;1.43;;;15.50;93.70;;;;;;4163356;28;20239;-81
2022/05/26 05:28:03;;;;;;;2.93;0.90;;;15.50;93.70;;;;;;4152054;28;20211;-81
2022/05/26 05:30:11;;;;;;;4.07;1.17;;;15.50;94.10;;;;;;4154856;28;20206;-81
2022/05/26 05:32:17;;;;;;;1.00;0.90;;;15.60;94.10;;;;;;4157182;28;20209;-81
2022/05/26 05:34:24;;;;;;;2.53;0.97;;;15.60;94.20;;;;;;4139668;28;20240;-81
2022/05/26 05:36:28;;;;;;;1.67;0.70;;;15.70;94.20;;;;;;4159624;28;20209;-81
2022/05/26 05:38:30;;;;;;;3.93;0.80;;;15.80;94.10;;;;;;4159830;28;20567;-81
2022/05/26 05:40:32;;;;;;;2.73;0.80;;;15.90;94.20;;;;;;4143205;28;20211;-81
2022/05/26 05:42:36;;;;;;;2.40;0.70;;;15.90;93.50;;;;;;4162561;28;20300;-81
2022/05/26 05:44:38;;;;;;;2.87;0.60;;;16.00;93.60;;;;;;4147248;28;20230;-80
2022/05/26 05:49:08;;;;;;;0.57;0.50;;;16.10;93.20;;;;;;4226463;27;20595;-80
2022/05/26 05:51:10;;;;;;;1.20;0.70;;;16.30;92.30;;;;;;4220819;28;20206;-81
2022/05/26 05:53:12;;;;;;;2.50;0.87;;;16.10;92.20;;;;;;4221206;28;20237;-80
2022/05/26 05:55:14;;;;;;;0.97;0.83;;;16.20;91.90;;;;;;4184199;28;20210;-81
2022/05/26 05:57:16;;;;;;;1.30;0.93;;;16.20;91.90;;;;;;4185543;28;20202;-81
2022/05/26 05:59:18;;;;;;;3.37;0.77;;;16.30;91.80;;;;;;4207643;28;20659;-81
2022/05/26 06:01:19;;;;;;;0.70;0.60;;;16.30;91.20;;;;;;4192097;28;20680;-81
2022/05/26 06:03:22;;;;;;;1.50;0.60;;;16.40;90.80;;;;;;4205949;28;20239;-81
2022/05/26 06:05:25;;;;;;;1.20;0.80;;;16.40;90.80;;;;;;4179376;28;20264;-81
2022/05/26 06:07:27;;;;;;;4.47;1.40;;;16.40;91.20;;;;;;4180787;28;20210;-81
2022/05/26 06:09:29;;;;;;;3.23;0.93;;;16.50;91.50;;;;;;4196288;28;20216;-81
2022/05/26 06:11:31;;;;;;;4.17;1.27;;;16.50;91.00;;;;;;4193855;28;20210;-82
2022/05/26 06:13:33;;;;;;;2.27;1.00;;;16.60;91.10;;;;;;4191324;28;20649;-81
2022/05/26 06:15:35;;;;;;;1.50;0.73;;;16.60;91.20;;;;;;4194181;28;20210;-81
2022/05/26 06:17:37;;;;;;;0.80;0.60;;;16.80;90.90;;;;;;4185728;28;20238;-81
2022/05/26 06:19:41;;;;;;;6.97;1.30;;;17.00;90.80;;;;;;4192588;28;20274;-81
2022/05/26 06:21:45;;;;;;;1.30;0.87;;;16.70;90.50;;;;;;4197566;28;20202;-81
2022/05/26 06:23:47;;;;;;;1.07;0.90;;;16.70;91.10;;;;;;4196191;28;20229;-81
2022/05/26 06:25:51;;;;;;;5.30;1.60;;;16.70;91.70;;;;;;4187568;28;20216;-81
2022/05/26 06:30:17;;;;;;;2.83;0.77;;;16.80;91.90;;;;;;4192591;28;20217;-80
2022/05/26 06:37:14;;;;;;;2.80;0.80;;;16.90;91.60;;;;;;4180015;28;20294;-81
2022/05/26 06:39:16;;;;;;;1.77;0.70;;;16.90;91.80;;;;;;4184203;28;20204;-81
2022/05/26 06:43:38;;;;;;;4.80;0.80;;;16.90;91.80;;;;;;4187045;28;20230;-81
2022/05/26 06:45:40;;;;;;;2.57;0.87;;;17.00;91.70;;;;;;4179652;28;20687;-81
2022/05/26 06:47:42;;;;;;;2.07;0.77;;;17.00;91.10;;;;;;4186234;28;20662;-81
2022/05/26 06:49:45;;;;;;;2.67;0.90;;;17.00;91.30;;;;;;4184033;28;20206;-81
2022/05/26 06:51:46;;;;;;;3.73;1.00;;;17.10;91.80;;;;;;4189241;28;20226;-81
2022/05/26 06:53:50;;;;;;;2.50;1.10;;;17.10;91.30;;;;;;4186623;28;20224;-81
2022/05/26 06:55:51;;;;;;;2.77;1.10;;;17.20;91.20;;;;;;4193021;28;20234;-81
2022/05/26 06:57:53;;;;;;;7.60;1.40;;;17.20;91.10;;;;;;4203429;28;20577;-81
2022/05/26 06:59:56;;;;;;;1.50;0.90;;;17.30;91.30;;;;;;4183581;28;20564;-80
2022/05/26 07:01:57;;;;;;;3.43;0.93;;;17.30;91.00;;;;;;4174751;28;20210;-81
2022/05/26 07:03:59;;;;;;;2.87;0.93;;;17.40;90.70;;;;;;4171433;28;20589;-81
2022/05/26 07:06:01;;;;;;;3.37;0.80;;;17.40;88.80;;;;;;4174413;28;20209;-81
2022/05/26 07:08:04;;;;;;;4.53;0.80;;;17.50;89.00;;;;;;4179726;28;20214;-81
2022/05/26 07:10:09;;;;;;;2.50;0.70;;;17.50;89.40;;;;;;4173696;28;20236;-80
2022/05/26 07:12:12;;;;;;;5.77;0.87;;;17.50;90.20;;;;;;4177362;28;20195;-81
2022/05/26 07:14:14;;;;;;;4.43;1.00;;;17.60;89.40;;;;;;4177397;28;20226;-80
2022/05/26 07:16:16;;;;;;;4.20;0.90;;;17.60;87.20;;;;;;4173402;28;20214;-81
2022/05/26 07:18:18;;;;;;;1.63;0.80;;;17.50;86.90;;;;;;4181276;28;20790;-81
2022/05/26 07:20:20;;;;;;;2.00;0.90;;;17.80;88.30;;;;;;4197436;28;20210;-81
2022/05/26 07:22:22;;;;;;;3.63;0.70;;;17.60;88.80;;;;;;4175353;28;20231;-82
2022/05/26 07:24:25;;;;;;;2.27;0.87;;;17.60;88.50;;;;;;4187477;28;20230;-81
2022/05/26 07:26:32;;;;;;;6.53;1.00;;;17.60;87.70;;;;;;4179127;28;20249;-80
2022/05/26 07:28:34;;;;;;;1.47;0.90;;;17.50;88.30;;;;;;4178579;28;20683;-80
2022/05/26 07:30:35;;;;;;;1.47;0.80;;;17.50;89.00;;;;;;4181326;28;20229;-80
2022/05/26 07:32:37;;;;;;;5.40;0.97;;;17.50;89.30;;;;;;4182566;28;20274;-80
2022/05/26 07:34:39;;;;;;;1.97;0.73;;;17.50;89.30;;;;;;4199172;28;20748;-80
2022/05/26 07:41:24;;;;;;;3.07;0.80;;;17.40;90.30;;;;;;4180163;28;20199;-80
2022/05/26 07:43:29;;;;;;;2.43;1.13;;;17.30;90.20;;;;;;4178534;28;20238;-80
2022/05/26 07:45:30;;;;;;;3.13;0.70;;;17.30;91.00;;;;;;4172570;28;20230;-80
2022/05/26 07:47:32;;;;;;;4.60;0.83;;;17.40;90.00;;;;;;4192297;28;20253;-80
2022/05/26 07:49:34;;;;;;;3.63;1.20;;;17.40;90.10;;;;;;4192684;28;20229;-80
2022/05/26 07:51:36;;;;;;;2.70;0.80;;;17.40;89.00;;;;;;4177914;28;20205;-80
2022/05/26 07:53:38;;;;;;;3.23;1.30;;;17.50;89.10;;;;;;4181307;28;20242;-80
2022/05/26 07:55:42;;;;;;;2.37;0.97;;;17.50;89.20;;;;;;4154438;28;116782;-80
2022/05/26 07:57:44;;;;;;;3.53;0.83;;;17.50;89.10;;;;;;4179815;28;20748;-80
2022/05/26 07:59:48;;;;;;;5.63;0.90;;;17.50;90.10;;;;;;4174138;28;20215;-81
2022/05/26 08:01:50;;;;;;;2.13;0.90;;;17.60;90.40;;;;;;4177144;28;20270;-80
2022/05/26 08:03:53;;;;;;;1.47;0.90;;;18.00;90.30;;;;;;4175767;28;20237;-81
2022/05/26 08:05:55;;;;;;;2.70;0.80;;;17.70;90.60;;;;;;4175031;28;20695;-80
2022/05/26 08:07:57;;;;;;;2.73;0.93;;;17.70;88.60;;;;;;4175821;28;20825;-81
2022/05/26 08:09:59;;;;;;;1.53;0.93;;;17.70;90.20;;;;;;4176360;28;20225;-81
2022/05/26 08:12:01;;;;;;;0.97;0.80;;;18.10;87.20;;;;;;4178917;28;20264;-81
2022/05/26 08:14:03;;;;;;;4.13;1.00;;;17.90;84.90;;;;;;4179241;28;20229;-81
2022/05/26 08:16:06;;;;;;;4.83;0.80;;;17.90;85.00;;;;;;4179499;28;20206;-81
2022/05/26 08:18:08;;;;;;;3.17;0.80;;;17.90;87.00;;;;;;4191436;28;20212;-80
2022/05/26 08:20:11;;;;;;;2.77;0.90;;;17.90;87.30;;;;;;4172533;28;20203;-81
2022/05/26 08:22:14;;;;;;;2.87;0.80;;;18.00;86.70;;;;;;4180175;28;20630;-81
2022/05/26 08:24:17;;;;;;;2.93;0.80;;;18.00;88.60;;;;;;4177356;28;20236;-80
2022/05/26 08:26:19;;;;;;;1.97;0.77;;;18.10;87.80;;;;;;4178074;28;20203;-81
2022/05/26 08:28:20;;;;;;;6.60;0.90;;;18.20;86.60;;;;;;4178279;28;20295;-81
2022/05/26 08:30:23;;;;;;;4.67;1.00;;;18.20;83.70;;;;;;4176484;28;20207;-81
2022/05/26 08:32:26;;;;;;;1.07;0.80;;;18.20;83.90;;;;;;4196693;28;20779;-81
2022/05/26 08:34:30;;;;;;;2.60;1.10;;;18.20;84.40;;;;;;4179660;28;20316;-81
2022/05/26 08:36:35;;;;;;;1.07;0.77;;;18.20;84.10;;;;;;4178641;28;20236;-81
2022/05/26 08:38:38;;;;;;;2.50;0.90;;;18.10;83.00;;;;;;4176995;28;20588;-81
2022/05/26 08:40:43;;;;;;;5.50;0.90;;;18.20;84.00;;;;;;4175055;28;20202;-80
2022/05/26 08:42:45;;;;;;;1.17;0.80;;;18.30;85.60;;;;;;4177890;28;20207;-83
2022/05/26 08:44:47;;;;;;;3.07;0.90;;;18.30;84.20;;;;;;4185626;28;20310;-81
2022/05/26 08:46:52;;;;;;;4.50;0.90;;;18.40;83.20;;;;;;4172291;28;20250;-81
2022/05/26 08:49:12;;;;;;;1.83;0.90;;;18.50;84.40;;;;;;4176659;28;20225;-81
2022/05/26 08:51:21;;;;;;;3.77;1.50;;;18.60;80.70;;;;;;4172888;28;20208;-81
2022/05/26 08:53:29;;;;;;;5.27;1.40;;;19.00;79.40;;;;;;4188201;28;20235;-82
2022/05/26 08:55:35;;;;;;;5.77;1.17;;;18.60;78.60;;;;;;4175126;28;20242;-82
2022/05/26 08:57:41;;;;;;;3.50;0.87;;;18.70;78.20;;;;;;4172575;28;20207;-81
2022/05/26 08:59:45;;;;;;;1.37;1.00;;;18.80;78.20;;;;;;4177261;28;20215;-81
2022/05/26 09:01:47;;;;;;;1.07;0.77;;;18.80;77.60;;;;;;4176409;28;20207;-82
2022/05/26 09:03:48;;;;;;;2.53;0.80;;;18.90;75.50;;;;;;4172150;28;20226;-82
2022/05/26 09:05:58;;;;;;;1.90;0.80;;;18.80;75.20;;;;;;4173544;28;20214;-83
2022/05/26 09:12:59;;;;;;;7.27;0.80;;;18.90;77.30;;;;;;4189049;28;20199;-83
2022/05/26 09:15:02;;;;;;;2.77;0.70;;;18.90;76.10;;;;;;4183220;28;20219;-83
2022/05/26 09:17:06;;;;;;;2.90;1.00;;;19.00;75.20;;;;;;4187170;28;20272;-84
2022/05/26 09:19:10;;;;;;;3.57;1.00;;;19.10;74.90;;;;;;4184975;28;20201;-83
2022/05/26 09:21:22;;;;;;;3.20;1.03;;;19.10;75.50;;;;;;4190618;28;20204;-82
2022/05/26 09:23:27;;;;;;;2.27;1.03;;;19.10;75.00;;;;;;4173518;28;20234;-82
2022/05/26 09:25:37;;;;;;;1.10;0.60;;;19.10;75.60;;;;;;4179891;28;20660;-82
2022/05/26 09:27:39;;;;;;;5.30;0.80;;;19.20;75.90;;;;;;4178043;28;20242;-82
2022/05/26 09:29:41;;;;;;;4.00;1.30;;;19.20;74.50;;;;;;4175679;28;20226;-82
2022/05/26 09:31:48;;;;;;;2.60;0.90;;;19.20;73.10;;;;;;4174019;28;20209;-81
2022/05/26 09:34:08;;;;;;;6.10;0.80;;;19.30;73.00;;;;;;4171323;28;20231;-82
2022/05/26 09:36:25;;;;;;;3.13;1.00;;;19.30;74.00;;;;;;4190287;28;20221;-82
2022/05/26 09:38:33;;;;;;;1.73;0.90;;;19.30;74.50;;;;;;4173642;28;20224;-83
2022/05/26 09:40:37;;;;;;;2.37;0.90;;;19.30;74.60;;;;;;4171509;28;20643;-80
2022/05/26 09:42:42;;;;;;;1.83;0.90;;;19.30;73.50;;;;;;4171828;28;20264;-81
2022/05/26 09:44:57;;;;;;;1.60;0.97;;;19.20;74.30;;;;;;4168971;28;20216;-79
2022/05/26 09:47:02;;;;;;;1.57;0.83;;;19.20;74.70;;;;;;4171328;28;20840;-79
2022/05/26 09:49:11;;;;;;;0.90;0.63;;;19.30;76.20;;;;;;4170635;28;20580;-79
2022/05/26 09:51:21;;;;;;;2.20;1.00;;;19.10;79.10;;;;;;4172094;28;20765;-80
2022/05/26 09:53:38;;;;;;;2.20;0.83;;;19.20;77.60;;;;;;4170374;28;20231;-79
2022/05/26 09:55:44;;;;;;;4.70;1.00;;;19.10;79.00;;;;;;4168251;28;20683;-79
2022/05/26 09:57:47;;;;;;;2.87;0.90;;;19.20;80.30;;;;;;4169948;28;20262;-78
2022/05/26 09:59:49;;;;;;;2.57;0.90;;;19.20;80.10;;;;;;4172625;28;20202;-79
2022/05/26 10:01:53;;;;;;;2.33;0.90;;;19.20;80.70;;;;;;4170882;28;20658;-77
2022/05/26 10:04:13;;;;;;;2.00;0.87;;;19.20;81.20;;;;;;4168252;28;20223;-79
2022/05/26 10:06:26;;;;;;;2.47;0.90;;;19.20;81.20;;;;;;4170432;28;20202;-78
2022/05/26 10:08:39;;;;;;;2.77;1.07;;;19.10;83.10;;;;;;4172105;28;20942;-78
2022/05/26 10:10:46;;;;;;;2.60;0.93;;;19.00;83.50;;;;;;4171206;28;20248;-78
2022/05/26 10:12:56;;;;;;;2.73;1.03;;;19.10;84.40;;;;;;4167283;28;20216;-79
2022/05/26 10:15:10;;;;;;;1.40;0.83;;;19.10;83.00;;;;;;4174193;28;20278;-79
2022/05/26 10:17:23;;;;;;;1.40;0.80;;;19.20;82.20;;;;;;4166559;28;20204;-79
2022/05/26 10:19:37;;;;;;;1.30;0.87;;;19.10;78.30;;;;;;4170665;28;20578;-79
2022/05/26 10:21:57;;;;;;;1.90;1.00;;;19.20;79.10;;;;;;4178796;28;20221;-79
2022/05/26 10:24:29;;;;;;;2.40;1.03;;;19.30;80.20;;;;;;4169269;28;20229;-79
2022/05/26 10:26:42;;;;;;;2.60;1.00;;;19.30;78.80;;;;;;4167070;28;20578;-78
2022/05/26 10:29:05;;;;;;;2.77;1.20;;;19.20;75.00;;;;;;4166191;28;20217;-78
2022/05/26 10:31:21;;;;;;;3.10;1.00;;;19.20;76.70;;;;;;4167838;28;20236;-78
2022/05/26 10:33:38;;;;;;;1.90;1.20;;;19.10;74.80;;;;;;4173194;28;20281;-78
2022/05/26 10:35:49;;;;;;;1.80;0.93;;;19.20;76.40;;;;;;4174360;28;20589;-77
2022/05/26 10:38:20;;;;;;;4.17;1.10;;;19.20;75.50;;;;;;4176253;28;20216;-78
2022/05/26 10:40:32;;;;;;;2.83;1.20;;;19.30;73.70;;;;;;4172865;28;20234;-78
2022/05/26 10:42:40;;;;;;;2.80;0.87;;;19.50;74.30;;;;;;4175852;28;20211;-78
2022/05/26 10:44:49;;;;;;;1.40;0.90;;;19.60;76.60;;;;;;4175712;28;20235;-78
2022/05/26 10:46:59;;;;;;;2.20;1.10;;;19.80;73.90;;;;;;4168458;28;20209;-78
2022/05/26 10:49:09;;;;;;;2.23;1.03;;;19.90;70.20;;;;;;4178670;28;20223;-78
2022/05/26 10:51:15;;;;;;;2.60;1.10;;;19.90;68.20;;;;;;4167113;28;20807;-78
2022/05/26 10:53:23;;;;;;;3.90;0.80;;;20.00;69.90;;;;;;4169143;28;20223;-78
2022/05/26 10:55:37;;;;;;;2.10;1.00;;;20.10;71.00;;;;;;4177635;28;20224;-78
2022/05/26 10:57:44;;;;;;;1.73;0.90;;;20.20;70.40;;;;;;4168074;28;20265;-79
2022/05/26 10:59:50;;;;;;;2.90;0.90;;;20.40;69.10;;;;;;4169034;28;20300;-79
2022/05/26 11:01:56;;;;;;;2.70;0.90;;;20.50;67.70;;;;;;4177798;28;20212;-79
2022/05/26 11:04:10;;;;;;;2.67;1.00;;;20.70;65.60;;;;;;4173161;28;20622;-79
2022/05/26 11:06:26;;;;;;;4.83;1.30;;;20.90;64.60;;;;;;4177878;28;20252;-79
2022/05/26 11:08:36;;;;;;;4.20;1.37;;;21.00;61.50;;;;;;4179541;28;20214;-78
2022/05/26 11:10:45;;;;;;;3.80;1.30;;;21.10;61.00;;;;;;4170766;28;20222;-79
2022/05/26 11:12:52;;;;;;;2.30;0.90;;;21.30;60.80;;;;;;4170018;28;20305;-78
2022/05/26 11:17:24;;;;;;;1.80;1.10;;;21.60;56.80;;;;;;4174326;28;20198;-78
2022/05/26 11:19:39;;;;;;;5.33;1.10;;;21.70;56.20;;;;;;4170351;28;20198;-79
2022/05/26 11:21:41;;;;;;;4.90;1.07;;;21.80;56.50;;;;;;4171916;28;20205;-79
2022/05/26 11:23:42;;;;;;;3.03;1.00;;;21.80;55.90;;;;;;4167089;28;20239;-78
2022/05/26 11:25:55;;;;;;;5.67;1.20;;;21.90;56.30;;;;;;4174534;28;20212;-78
2022/05/26 11:28:00;;;;;;;2.10;1.20;;;22.00;55.20;;;;;;4170798;28;20207;-77
2022/05/26 11:30:05;;;;;;;3.53;1.17;;;22.00;53.00;;;;;;4172222;28;20220;-78
2022/05/26 11:37:16;;;;;;;2.40;1.30;;;21.70;51.30;;;;;;4169525;28;20558;-77
2022/05/26 11:39:23;;;;;;;2.13;1.20;;;21.50;52.20;;;;;;4167097;28;20211;-77
2022/05/26 11:41:35;;;;;;;2.47;1.30;;;21.40;53.30;;;;;;4173867;28;20226;-77